WetterOnline ( https://www.wetteronline.at )

Wetter aktuell Wangerooge

Aktuelles Wetter: Helgoland/Düne (8m)

6-stündlich | Neueste Meldungen
Ortszeit Temperatur Wetter
Mi, 24.07. 2:00 16.8° C leicht bewölkt
Di, 23.07. 20:00 18.7° C bewölkt
Di, 23.07. 14:00 19.8° C wolkenlos
Di, 23.07. 8:00 18.9° C bewölkt
Di, 23.07. 2:00 18.3° C bedeckt
Mo, 22.07. 20:00 18.3° C wolkig
Mo, 22.07. 14:00 18.1° C leicht bewölkt
Mo, 22.07. 8:00 16.4° C Sprühregen
Ortszeit Temperatur Wetter
Mi, 24.07. 5:00 16.4° C leicht bewölkt
Mi, 24.07. 4:50 16.4° C leicht bewölkt
Mi, 24.07. 4:40 16.3° C fast wolkenlos
Mi, 24.07. 4:30 16.4° C leicht bewölkt
Mi, 24.07. 4:20 16.4° C leicht bewölkt
Mi, 24.07. 4:10 16.4° C fast wolkenlos
Mi, 24.07. 4:00 16.5° C leicht bewölkt
Mi, 24.07. 3:30 16.6° C leicht bewölkt
Mi, 24.07. 3:00 16.7° C leicht bewölkt
Mi, 24.07. 2:30 16.8° C fast wolkenlos
Mi, 24.07. 2:00 16.8° C leicht bewölkt
Ortszeit Relative Feuchte Sichtweite
Mi, 24.07. 2:00 80% 35 km
Di, 23.07. 20:00 86% 35 km
Di, 23.07. 14:00 88% 20 km
Di, 23.07. 8:00 92% 25 km
Di, 23.07. 2:00 83% 40 km
Mo, 22.07. 20:00 74% 50 km
Mo, 22.07. 14:00 69% 50 km
Mo, 22.07. 8:00 89% 18 km
Ortszeit Relative Feuchte Sichtweite
Mi, 24.07. 5:00 81% 30 km
Mi, 24.07. 4:50 81% -
Mi, 24.07. 4:40 81% -
Mi, 24.07. 4:30 82% 30 km
Mi, 24.07. 4:20 82% -
Mi, 24.07. 4:10 81% -
Mi, 24.07. 4:00 82% 35 km
Mi, 24.07. 3:30 83% 30 km
Mi, 24.07. 3:00 81% 30 km
Mi, 24.07. 2:30 82% 35 km
Mi, 24.07. 2:00 80% 35 km
Ortszeit Niederschlagsmenge Niederschlagsart
Mi, 24.07. 2:00 0.1 l/m2 in 6 Std. Regen
Di, 23.07. 20:00 0.0 l/m2 in 12 Std. -
Di, 23.07. 14:00 0.0 l/m2 in 6 Std. -
Di, 23.07. 8:00 2 l/m2 in 12 Std. Regen
Di, 23.07. 2:00 0.1 l/m2 in 6 Std. Regen
Mo, 22.07. 20:00 0.1 l/m2 in 12 Std. -
Mo, 22.07. 14:00 0.1 l/m2 in 6 Std. Regen
Mo, 22.07. 8:00 4 l/m2 in 12 Std. Regen
Ortszeit Niederschlagsmenge Niederschlagsart
Mi, 24.07. 5:00 0.0 l/m2 in 1 Std. -
Mi, 24.07. 4:50 keine Meldung -
Mi, 24.07. 4:40 keine Meldung -
Mi, 24.07. 4:30 0.0 l/m2 in 30 Min -
Mi, 24.07. 4:20 keine Meldung -
Mi, 24.07. 4:10 keine Meldung -
Mi, 24.07. 4:00 0.0 l/m2 in 1 Std. -
Mi, 24.07. 3:30 0.0 l/m2 in 30 Min -
Mi, 24.07. 3:00 0.0 l/m2 in 1 Std. -
Mi, 24.07. 2:30 0.0 l/m2 in 30 Min -
Mi, 24.07. 2:00 0.0 l/m2 in 1 Std. Regen
Ortszeit Stärke Spitze Richtung
km/h Bft. km/h Grad Sektor
Mi, 24.07. 2:00 26 4 35 320° NW
Di, 23.07. 20:00 18 3 25 310° NW
Di, 23.07. 14:00 22 4 36 250° W
Di, 23.07. 8:00 17 3 30 210° SW
Di, 23.07. 2:00 18 3 32 180° S
Mo, 22.07. 20:00 7 2 31 110° O
Mo, 22.07. 14:00 24 4 41 290° W
Mo, 22.07. 8:00 32 5 40 300° NW
Ortszeit Stärke Spitze Richtung
km/h Bft. km/h Grad Sektor
Mi, 24.07. 5:00 30 5 37 320° NW
Mi, 24.07. 4:50 30 5 - 320° NW
Mi, 24.07. 4:40 28 4 - 320° NW
Mi, 24.07. 4:30 30 5 35 320° NW
Mi, 24.07. 4:20 30 5 - 320° NW
Mi, 24.07. 4:10 28 4 - 320° NW
Mi, 24.07. 4:00 28 4 39 320° NW
Mi, 24.07. 3:30 30 5 37 320° NW
Mi, 24.07. 3:00 28 4 35 320° NW
Mi, 24.07. 2:30 24 4 31 320° NW
Mi, 24.07. 2:00 26 4 33 320° NW
Ortszeit Untergrenze Bedeckung Gattung
total tief tief mittel hoch
Mi, 24.07. 2:00 510 m 2/8 2/8 - - -
Di, 23.07. 20:00 480 m 7/8 7/8 - - -
Di, 23.07. 14:00 - 0/8 0/8 - - -
Di, 23.07. 8:00 450 m 7/8 7/8 - - -
Di, 23.07. 2:00 960 m 8/8 8/8 - - -
Mo, 22.07. 20:00 2100 m 5/8 5/8 - - -
Mo, 22.07. 14:00 690 m 3/8 3/8 - - -
Mo, 22.07. 8:00 510 m 8/8 8/8 - - -
Ortszeit Bedeckungsgrad in Achtel und Wolkenuntergrenze
Mi, 24.07. 5:00 2(510m)
Mi, 24.07. 4:50 2(510m)
Mi, 24.07. 4:40 1
Mi, 24.07. 4:30 2(480m)
Mi, 24.07. 4:20 2(480m)
Mi, 24.07. 4:10 1
Mi, 24.07. 4:00 2(480m)
Mi, 24.07. 3:30 2(480m) 4(1410m)
Mi, 24.07. 3:00 4(480m)
Mi, 24.07. 2:30 1(480m)
Mi, 24.07. 2:00 2(510m)
Ortszeit Luftdruck NN (hPa) Tendenz (hPa in 3 Std.)
Mi, 24.07. 2:00 1017 + 1,3
Di, 23.07. 20:00 1015 + 0,6
Di, 23.07. 14:00 1014 + 0,3
Di, 23.07. 8:00 1014 - 0,5
Di, 23.07. 2:00 1016 - 0,9
Mo, 22.07. 20:00 1016 - 0,5
Mo, 22.07. 14:00 1016 + 1,9
Mo, 22.07. 8:00 1012 + 2,0
Ortszeit Luftdruck NN (hPa) Tendenz (hPa in 3 Std.)
Mi, 24.07. 5:00 1018 + 0,5
Mi, 24.07. 4:50 1018 keine Meldung
Mi, 24.07. 4:40 1018 keine Meldung
Mi, 24.07. 4:30 1017 + 0,5
Mi, 24.07. 4:20 1017 keine Meldung
Mi, 24.07. 4:10 1017 keine Meldung
Mi, 24.07. 4:00 1017 + 0,4
Mi, 24.07. 3:30 1017 + 0,7
Mi, 24.07. 3:00 1017 + 1,0
Mi, 24.07. 2:30 1017 + 1,2
Mi, 24.07. 2:00 1017 + 1,3
Ortszeit Schneehöhe (cm)
Mi, 24.07. 2:00 0
Di, 23.07. 20:00 0
Di, 23.07. 14:00 0
Di, 23.07. 8:00 0
Di, 23.07. 2:00 0
Mo, 22.07. 20:00 0
Mo, 22.07. 14:00 0
Mo, 22.07. 8:00 0
Ortszeit Schneehöhe (cm)
Mi, 24.07. 5:00 0
Mi, 24.07. 4:50 0
Mi, 24.07. 4:40 -
Mi, 24.07. 4:30 0
Mi, 24.07. 4:20 0
Mi, 24.07. 4:10 -
Mi, 24.07. 4:00 0
Mi, 24.07. 3:30 0
Mi, 24.07. 3:00 0
Mi, 24.07. 2:30 0
Mi, 24.07. 2:00 0
Link zu dieser Seite / Seite empfehlen

Das Wetter in ...